createdAt,value
2022-10-31T00:01:36.365Z,101427.13
2022-10-31T00:04:04.885Z,101426.84
2022-10-31T00:06:32.763Z,101418.63
2022-10-31T00:09:02.274Z,101430.50
2022-10-31T00:11:30.283Z,101426.63
2022-10-31T00:13:59.147Z,101426.63
2022-10-31T00:16:27.846Z,101426.38
2022-10-31T00:19:01.778Z,101430.72
2022-10-31T00:21:30.624Z,101424.75
2022-10-31T00:23:59.823Z,101431.34
2022-10-31T00:26:32.259Z,101429.97
2022-10-31T00:29:01.378Z,101423.66
2022-10-31T00:31:29.872Z,101426.94
2022-10-31T00:33:58.977Z,101418.63
2022-10-31T00:36:28.256Z,101426.06
2022-10-31T00:38:56.217Z,101420.25
2022-10-31T00:41:25.453Z,101426.38
2022-10-31T00:43:53.290Z,101429.13
2022-10-31T00:46:21.138Z,101420.06
2022-10-31T00:48:51.854Z,101422.34
2022-10-31T00:51:19.708Z,101417.75
2022-10-31T00:53:47.442Z,101413.88
2022-10-31T00:56:15.608Z,101417.72
2022-10-31T00:58:43.836Z,101417.75
2022-10-31T01:01:11.762Z,101419.69
2022-10-31T01:03:39.931Z,101410.66
2022-10-31T01:06:14.091Z,101415.28
2022-10-31T01:08:42.165Z,101410.88
2022-10-31T01:11:16.309Z,101411.13
2022-10-31T01:13:46.072Z,101406.41
2022-10-31T01:16:20.809Z,101415.56
2022-10-31T01:18:48.858Z,101407.88
2022-10-31T01:21:22.323Z,101403.19
2022-10-31T01:23:51.365Z,101402.69
2022-10-31T01:26:21.975Z,101401.06
2022-10-31T01:28:53.628Z,101405.50
2022-10-31T01:31:23.473Z,101408.56
2022-10-31T01:33:51.316Z,101398.34
2022-10-31T01:36:29.727Z,101397.78
2022-10-31T01:39:00.295Z,101401.94
2022-10-31T01:41:31.224Z,101405.81
2022-10-31T01:44:23.769Z,101401.94
2022-10-31T01:47:00.227Z,101398.59
2022-10-31T01:49:39.916Z,101403.03
2022-10-31T01:52:13.412Z,101399.72
2022-10-31T01:54:46.507Z,101395.63
2022-10-31T01:57:16.537Z,101393.19
2022-10-31T01:59:48.775Z,101393.19
2022-10-31T02:02:19.913Z,101394.38
2022-10-31T02:04:48.946Z,101388.38
2022-10-31T02:07:27.219Z,101389.19
2022-10-31T02:09:58.299Z,101385.06
2022-10-31T02:12:26.686Z,101375.69
2022-10-31T02:15:01.172Z,101384.25
2022-10-31T02:17:31.384Z,101378.47
2022-10-31T02:20:06.763Z,101378.19
2022-10-31T02:23:01.734Z,101374.63
2022-10-31T02:25:47.431Z,101380.69
2022-10-31T02:28:40.365Z,101370.22
2022-10-31T02:31:29.986Z,101367.78
2022-10-31T02:34:04.082Z,101369.72
2022-10-31T02:36:48.348Z,101368.06
2022-10-31T02:39:22.159Z,101373.25
2022-10-31T02:42:08.749Z,101372.91
2022-10-31T02:44:59.950Z,101373.78
2022-10-31T02:47:38.006Z,101368.06
2022-10-31T02:50:06.397Z,101373.53
2022-10-31T02:52:36.172Z,101369.69
2022-10-31T02:55:37.686Z,101369.13
2022-10-31T02:58:11.372Z,101363.63
2022-10-31T03:01:01.329Z,101365.53
2022-10-31T03:03:37.365Z,101359.16
2022-10-31T03:06:15.124Z,101368.53
2022-10-31T03:08:56.893Z,101368.88
2022-10-31T03:11:32.567Z,101364.78
2022-10-31T03:14:32.112Z,101366.94
2022-10-31T03:17:06.847Z,101365.31
2022-10-31T03:19:40.394Z,101362.81
2022-10-31T03:22:31.043Z,101366.16
2022-10-31T03:25:04.583Z,101366.97
2022-10-31T03:27:36.839Z,101367.28
2022-10-31T03:30:19.647Z,101377.44
2022-10-31T03:33:03.601Z,101373.88
2022-10-31T03:35:37.057Z,101370.34
2022-10-31T03:38:07.854Z,101373.63
2022-10-31T03:40:38.897Z,101374.19
2022-10-31T03:43:11.929Z,101380.81
2022-10-31T03:45:45.350Z,101373.13
2022-10-31T03:48:16.669Z,101378.59
2022-10-31T03:51:00.004Z,101374.50
2022-10-31T03:53:39.602Z,101376.72
2022-10-31T03:56:13.953Z,101387.41
2022-10-31T03:58:50.258Z,101387.72
2022-10-31T04:01:21.039Z,101389.38
2022-10-31T04:03:50.345Z,101391.31
2022-10-31T04:06:22.784Z,101386.91
2022-10-31T04:08:59.171Z,101395.19
2022-10-31T04:11:32.853Z,101381.44
2022-10-31T04:14:29.217Z,101387.03
2022-10-31T04:16:58.708Z,101387.53
2022-10-31T04:19:35.212Z,101393.03
2022-10-31T04:22:03.316Z,101388.63
2022-10-31T04:24:31.374Z,101393.59
2022-10-31T04:26:59.766Z,101390.81
2022-10-31T04:29:28.942Z,101389.09
2022-10-31T04:31:57.302Z,101397.38
2022-10-31T04:34:25.227Z,101394.94
2022-10-31T04:36:53.168Z,101399.41
2022-10-31T04:39:24.235Z,101397.19
2022-10-31T04:42:14.624Z,101390.81
2022-10-31T04:44:42.601Z,101394.06
2022-10-31T04:47:10.430Z,101398.50
2022-10-31T04:49:38.367Z,101397.13
2022-10-31T04:52:07.141Z,101399.66
2022-10-31T04:54:35.022Z,101395.31
2022-10-31T04:57:21.405Z,101393.09
2022-10-31T04:59:50.172Z,101398.63
2022-10-31T05:02:17.956Z,101396.47
2022-10-31T05:04:51.960Z,101393.44
2022-10-31T05:07:20.171Z,101387.69
2022-10-31T05:09:47.991Z,101398.13
2022-10-31T05:12:15.794Z,101396.22
2022-10-31T05:15:02.491Z,101392.63
2022-10-31T05:17:59.769Z,101394.59
2022-10-31T05:20:46.084Z,101393.72
2022-10-31T05:23:23.729Z,101388.22
2022-10-31T05:25:51.752Z,101398.13
2022-10-31T05:28:19.585Z,101394.84
2022-10-31T05:30:47.470Z,101401.13
2022-10-31T05:33:17.293Z,101392.59
2022-10-31T05:36:04.075Z,101395.09
2022-10-31T05:38:43.334Z,101398.38
2022-10-31T05:41:31.407Z,101399.19
2022-10-31T05:44:22.340Z,101396.44
2022-10-31T05:47:09.944Z,101402.47
2022-10-31T05:49:56.538Z,101400.31
2022-10-31T05:52:39.439Z,101391.00
2022-10-31T05:55:22.655Z,101397.63
2022-10-31T05:58:12.245Z,101399.25
2022-10-31T06:00:42.984Z,101393.50
2022-10-31T06:03:12.320Z,101401.75
2022-10-31T06:05:52.268Z,101404.75
2022-10-31T06:08:25.616Z,101406.69
2022-10-31T06:10:55.235Z,101409.72
2022-10-31T06:13:42.965Z,101402.00
2022-10-31T06:16:18.108Z,101405.56
2022-10-31T06:18:49.528Z,101411.59
2022-10-31T06:21:19.072Z,101404.72
2022-10-31T06:23:49.658Z,101405.78
2022-10-31T06:26:37.415Z,101407.94
2022-10-31T06:29:05.385Z,101404.63
2022-10-31T06:32:02.323Z,101416.19
2022-10-31T06:34:31.694Z,101423.34
2022-10-31T06:36:59.703Z,101410.09
2022-10-31T06:39:28.889Z,101422.16
2022-10-31T06:41:56.941Z,101429.56
2022-10-31T06:44:25.752Z,101421.78
2022-10-31T06:46:56.989Z,101433.06
2022-10-31T06:49:45.102Z,101432.25
2022-10-31T06:52:16.476Z,101439.00
2022-10-31T06:54:44.301Z,101440.13
2022-10-31T06:57:12.055Z,101437.09
2022-10-31T06:59:40.838Z,101434.78
2022-10-31T07:02:28.921Z,101441.72
2022-10-31T07:04:57.710Z,101443.81
2022-10-31T07:07:25.624Z,101446.59
2022-10-31T07:09:53.453Z,101446.91
2022-10-31T07:12:31.854Z,101452.56
2022-10-31T07:15:00.381Z,101458.41
2022-10-31T07:17:30.044Z,101460.13
2022-10-31T07:20:00.879Z,101463.91
2022-10-31T07:22:36.778Z,101463.63
2022-10-31T07:25:07.264Z,101466.03
2022-10-31T07:27:58.781Z,101460.56
2022-10-31T07:30:26.878Z,101468.47
2022-10-31T07:32:57.434Z,101467.97
2022-10-31T07:35:33.985Z,101461.72
2022-10-31T07:38:09.774Z,101467.16
2022-10-31T07:40:37.782Z,101480.81
2022-10-31T07:43:08.845Z,101481.41
2022-10-31T07:46:12.640Z,101481.03
2022-10-31T07:49:12.828Z,101482.88
2022-10-31T07:51:59.016Z,101484.63
2022-10-31T07:54:26.796Z,101495.34
2022-10-31T07:56:55.298Z,101496.94
2022-10-31T07:59:26.990Z,101498.69
2022-10-31T08:01:55.469Z,101506.09
2022-10-31T08:04:32.316Z,101509.00
2022-10-31T08:07:37.730Z,101507.09
2022-10-31T08:10:08.296Z,101504.75
2022-10-31T08:12:36.698Z,101502.38
2022-10-31T08:15:08.959Z,101510.94
2022-10-31T08:17:37.928Z,101500.34
2022-10-31T08:20:06.736Z,101499.25
2022-10-31T08:22:42.889Z,101502.03
2022-10-31T08:25:12.164Z,101500.84
2022-10-31T08:27:40.426Z,101501.06
2022-10-31T08:30:13.836Z,101509.94
2022-10-31T08:33:15.144Z,101496.75
2022-10-31T08:36:01.633Z,101506.44
2022-10-31T08:38:48.711Z,101521.50
2022-10-31T08:41:17.815Z,101520.31
2022-10-31T08:43:46.296Z,101520.19
2022-10-31T08:46:14.550Z,101518.41
2022-10-31T08:48:44.794Z,101528.28
2022-10-31T08:51:13.687Z,101524.47
2022-10-31T08:53:41.514Z,101519.50
2022-10-31T08:56:41.194Z,101517.88
2022-10-31T08:59:25.906Z,101516.72
2022-10-31T09:02:14.062Z,101519.66
2022-10-31T09:04:41.904Z,101521.97
2022-10-31T09:07:25.064Z,101523.59
2022-10-31T09:09:54.405Z,101510.03
2022-10-31T09:12:22.397Z,101513.47
2022-10-31T09:15:03.111Z,101512.63
2022-10-31T09:17:37.678Z,101514.75
2022-10-31T09:20:46.149Z,101508.31
2022-10-31T09:23:18.306Z,101504.44
2022-10-31T09:25:50.785Z,101508.50
2022-10-31T09:28:37.073Z,101503.47
2022-10-31T09:31:24.936Z,101501.19
2022-10-31T09:34:16.036Z,101500.78
2022-10-31T09:37:02.851Z,101497.66
2022-10-31T09:39:33.699Z,101499.88
2022-10-31T09:42:29.889Z,101502.53
2022-10-31T09:45:13.749Z,101495.75
2022-10-31T09:47:41.795Z,101492.44
2022-10-31T09:50:38.225Z,101495.03
2022-10-31T09:53:36.380Z,101497.31
2022-10-31T09:56:09.999Z,101503.16
2022-10-31T09:58:43.661Z,101503.72
2022-10-31T10:01:24.619Z,101499.28
2022-10-31T10:03:57.883Z,101490.31
2022-10-31T10:06:58.424Z,101502.38
2022-10-31T10:09:45.575Z,101486.78
2022-10-31T10:12:51.383Z,101492.91
2022-10-31T10:15:45.693Z,101480.53
2022-10-31T10:18:56.681Z,101486.94
2022-10-31T10:21:33.277Z,101490.50
2022-10-31T10:24:27.029Z,101481.22
2022-10-31T10:27:20.711Z,101479.69
2022-10-31T10:30:07.587Z,101478.75
2022-10-31T10:32:47.779Z,101481.31
2022-10-31T10:35:32.451Z,101479.69
2022-10-31T10:38:12.643Z,101474.59
2022-10-31T10:40:41.497Z,101471.31
2022-10-31T10:43:26.799Z,101466.44
2022-10-31T10:46:39.790Z,101473.75
2022-10-31T10:49:38.099Z,101474.34
2022-10-31T10:52:44.748Z,101476.13
2022-10-31T10:55:38.384Z,101468.84
2022-10-31T10:58:11.010Z,101470.47
2022-10-31T11:00:44.036Z,101478.25
2022-10-31T11:03:12.319Z,101476.03
2022-10-31T11:05:51.310Z,101473.63
2022-10-31T11:08:32.678Z,101455.72
2022-10-31T11:11:19.208Z,101447.66
2022-10-31T11:13:50.448Z,101455.56
2022-10-31T11:16:27.507Z,101453.44
2022-10-31T11:19:06.302Z,101448.59
2022-10-31T11:21:35.832Z,101444.78
2022-10-31T11:24:12.509Z,101438.19
2022-10-31T11:26:42.668Z,101442.19
2022-10-31T11:29:26.030Z,101446.63
2022-10-31T11:31:57.579Z,101439.22
2022-10-31T11:34:25.381Z,101437.06
2022-10-31T11:36:53.330Z,101439.22
2022-10-31T11:39:25.854Z,101435.69
2022-10-31T11:41:55.381Z,101427.16
2022-10-31T11:44:29.320Z,101428.13
2022-10-31T11:46:59.853Z,101430.81
2022-10-31T11:49:40.041Z,101423.13
2022-10-31T11:52:14.001Z,101422.81
2022-10-31T11:54:55.036Z,101422.69
2022-10-31T11:57:44.470Z,101414.53
2022-10-31T12:00:30.754Z,101415.53
2022-10-31T12:03:23.408Z,101411.63
2022-10-31T12:06:00.113Z,101412.84
2022-10-31T12:08:37.196Z,101402.34
2022-10-31T12:11:29.559Z,101399.09
2022-10-31T12:14:12.190Z,101392.22
2022-10-31T12:16:47.167Z,101391.97
2022-10-31T12:19:56.340Z,101389.41
2022-10-31T12:22:48.593Z,101384.13
2022-10-31T12:25:29.257Z,101380.69
2022-10-31T12:28:32.664Z,101383.88
2022-10-31T12:31:15.451Z,101369.38
2022-10-31T12:34:12.259Z,101371.97
2022-10-31T12:36:48.776Z,101369.47
2022-10-31T12:39:41.523Z,101359.94
2022-10-31T12:42:15.108Z,101357.22
2022-10-31T12:44:53.337Z,101346.75
2022-10-31T12:47:54.276Z,101343.63
2022-10-31T12:50:48.561Z,101346.06
2022-10-31T12:53:25.493Z,101335.16
2022-10-31T12:56:13.592Z,101327.63
2022-10-31T12:59:01.699Z,101325.59
2022-10-31T13:01:40.799Z,101333.66
2022-10-31T13:04:46.487Z,101336.38
2022-10-31T13:07:26.655Z,101335.81
2022-10-31T13:10:01.916Z,101337.19
2022-10-31T13:12:34.825Z,101325.97
2022-10-31T13:15:28.172Z,101321.13
2022-10-31T13:18:00.616Z,101328.31
2022-10-31T13:20:36.041Z,101327.94
2022-10-31T13:23:48.526Z,101318.13
2022-10-31T13:26:39.339Z,101313.34
2022-10-31T13:29:36.063Z,101319.16
2022-10-31T13:32:08.426Z,101324.13
2022-10-31T13:34:44.409Z,101315.56
2022-10-31T13:37:23.060Z,101321.28
2022-10-31T13:39:53.689Z,101319.88
2022-10-31T13:42:43.308Z,101310.84
2022-10-31T13:45:22.344Z,101312.19
2022-10-31T13:48:16.763Z,101314.44
2022-10-31T13:51:10.419Z,101314.72
2022-10-31T13:53:41.882Z,101312.44
2022-10-31T13:56:11.919Z,101312.94
2022-10-31T13:58:39.828Z,101306.66
2022-10-31T14:01:23.789Z,101310.41
2022-10-31T14:04:24.981Z,101313.50
2022-10-31T14:07:10.633Z,101305.56
2022-10-31T14:09:49.314Z,101302.63
2022-10-31T14:12:26.671Z,101303.16
2022-10-31T14:15:03.376Z,101305.44
2022-10-31T14:17:40.158Z,101303.25
2022-10-31T14:20:10.776Z,101301.38
2022-10-31T14:22:42.863Z,101304.44
2022-10-31T14:25:34.324Z,101298.88
2022-10-31T14:28:21.449Z,101298.22
2022-10-31T14:30:58.836Z,101308.97
2022-10-31T14:33:29.238Z,101297.41
2022-10-31T14:36:08.200Z,101291.16
2022-10-31T14:38:59.803Z,101303.03
2022-10-31T14:41:59.453Z,101295.59
2022-10-31T14:44:44.054Z,101293.47
2022-10-31T14:47:38.171Z,101300.63
2022-10-31T14:50:41.386Z,101295.97
2022-10-31T14:53:18.511Z,101288.34
2022-10-31T14:55:50.513Z,101283.59
2022-10-31T14:58:38.368Z,101283.22
2022-10-31T15:01:06.809Z,101288.34
2022-10-31T15:03:44.523Z,101286.16
2022-10-31T15:06:24.225Z,101285.56
2022-10-31T15:08:54.682Z,101285.91
2022-10-31T15:11:25.888Z,101279.97
2022-10-31T15:13:56.195Z,101281.50
2022-10-31T15:16:26.853Z,101282.06
2022-10-31T15:19:01.845Z,101288.00
2022-10-31T15:21:30.390Z,101275.56
2022-10-31T15:24:00.170Z,101275.09
2022-10-31T15:26:36.483Z,101275.78
2022-10-31T15:29:07.030Z,101276.72
2022-10-31T15:31:34.961Z,101279.28
2022-10-31T15:36:51.589Z,101285.31
2022-10-31T15:39:20.174Z,101275.28
2022-10-31T15:41:57.637Z,101286.31
2022-10-31T15:44:31.987Z,101272.72
2022-10-31T15:47:03.610Z,101276.25
2022-10-31T15:49:41.072Z,101274.03
2022-10-31T15:52:48.473Z,101279.09
2022-10-31T15:55:19.712Z,101281.13
2022-10-31T15:57:53.937Z,101277.06
2022-10-31T16:00:42.570Z,101285.97
2022-10-31T16:03:16.176Z,101284.94
2022-10-31T16:05:49.624Z,101285.84
2022-10-31T16:08:34.725Z,101290.50
2022-10-31T16:11:08.653Z,101290.41
2022-10-31T16:13:39.259Z,101285.69
2022-10-31T16:19:06.927Z,101303.28
2022-10-31T16:21:39.675Z,101305.09
2022-10-31T16:24:29.291Z,101306.13
2022-10-31T16:27:06.316Z,101310.22
2022-10-31T16:29:35.749Z,101315.28
2022-10-31T16:32:03.674Z,101314.94
2022-10-31T16:34:31.625Z,101314.28
2022-10-31T16:36:59.467Z,101315.94
2022-10-31T16:39:27.271Z,101316.91
2022-10-31T16:41:57.355Z,101316.56
2022-10-31T16:44:27.201Z,101328.00
2022-10-31T16:47:20.320Z,101333.75
2022-10-31T16:49:51.547Z,101342.53
2022-10-31T16:52:20.323Z,101340.56
2022-10-31T16:54:49.023Z,101343.50
2022-10-31T16:57:21.327Z,101345.59
2022-10-31T16:59:55.143Z,101339.22
2022-10-31T17:02:23.837Z,101342.31
2022-10-31T17:04:55.618Z,101348.97
2022-10-31T17:07:24.994Z,101352.69
2022-10-31T17:09:53.147Z,101348.28
2022-10-31T17:12:26.411Z,101350.09
2022-10-31T17:14:54.773Z,101349.72
2022-10-31T17:17:22.842Z,101348.75
2022-10-31T17:19:50.778Z,101344.97
2022-10-31T17:22:18.727Z,101353.91
2022-10-31T17:24:46.640Z,101344.94
2022-10-31T17:27:14.505Z,101350.31
2022-10-31T17:29:42.697Z,101356.44
2022-10-31T17:32:10.698Z,101357.31
2022-10-31T17:34:38.698Z,101355.94
2022-10-31T17:37:07.847Z,101359.81
2022-10-31T17:39:35.626Z,101364.19
2022-10-31T17:42:03.500Z,101360.88
2022-10-31T17:44:31.398Z,101365.69
2022-10-31T17:46:59.564Z,101370.25
2022-10-31T17:49:27.677Z,101374.78
2022-10-31T17:51:55.623Z,101377.50
2022-10-31T17:54:23.577Z,101381.22
2022-10-31T17:56:53.972Z,101368.09
2022-10-31T17:59:22.102Z,101380.44
2022-10-31T18:01:50.232Z,101376.44
2022-10-31T18:04:18.316Z,101370.03
2022-10-31T18:06:47.911Z,101377.63
2022-10-31T18:09:16.772Z,101375.06
2022-10-31T18:11:44.991Z,101372.13
2022-10-31T18:14:14.033Z,101374.66
2022-10-31T18:16:42.780Z,101370.06
2022-10-31T18:19:16.220Z,101374.38
2022-10-31T18:21:46.435Z,101368.94
2022-10-31T18:24:14.109Z,101376.44
2022-10-31T18:26:43.994Z,101373.97
2022-10-31T18:29:12.580Z,101383.13
2022-10-31T18:31:40.518Z,101387.13
2022-10-31T18:34:08.189Z,101382.81
2022-10-31T18:36:35.772Z,101379.66
2022-10-31T18:39:03.445Z,101383.00
2022-10-31T18:41:31.094Z,101376.22
2022-10-31T18:44:02.768Z,101379.75
2022-10-31T18:46:30.367Z,101371.53
2022-10-31T18:48:58.062Z,101384.31
2022-10-31T18:51:26.983Z,101372.34
2022-10-31T18:53:58.309Z,101385.44
2022-10-31T18:56:27.741Z,101381.94
2022-10-31T18:58:55.591Z,101378.72
2022-10-31T19:01:23.474Z,101370.94
2022-10-31T19:03:55.748Z,101380.88
2022-10-31T19:06:26.443Z,101381.81
2022-10-31T19:08:59.982Z,101384.56
2022-10-31T19:11:28.153Z,101378.59
2022-10-31T19:13:58.397Z,101388.41
2022-10-31T19:16:26.853Z,101385.66
2022-10-31T19:18:56.264Z,101385.19
2022-10-31T19:21:24.429Z,101394.63
2022-10-31T19:23:54.180Z,101390.22
2022-10-31T19:26:25.196Z,101393.06
2022-10-31T19:28:53.210Z,101383.22
2022-10-31T19:31:20.881Z,101387.69
2022-10-31T19:33:48.570Z,101395.47
2022-10-31T19:36:18.821Z,101388.31
2022-10-31T19:38:49.030Z,101395.47
2022-10-31T19:41:20.238Z,101393.31
2022-10-31T19:43:48.487Z,101396.69
2022-10-31T19:46:27.969Z,101398.31
2022-10-31T19:49:06.008Z,101395.63
2022-10-31T19:51:33.555Z,101395.63
2022-10-31T19:54:01.489Z,101387.44
2022-10-31T19:56:30.354Z,101395.19
2022-10-31T19:58:59.894Z,101390.28
2022-10-31T20:01:27.603Z,101401.31
2022-10-31T20:03:55.338Z,101393.84
2022-10-31T20:06:24.430Z,101402.41
2022-10-31T20:08:52.523Z,101405.28
2022-10-31T20:11:20.105Z,101403.63
2022-10-31T20:13:47.752Z,101395.88
2022-10-31T20:16:16.725Z,101397.00
2022-10-31T20:18:45.105Z,101403.09
2022-10-31T20:21:18.710Z,101406.75
2022-10-31T20:23:47.764Z,101409.59
2022-10-31T20:27:06.170Z,101409.66
2022-10-31T20:29:34.565Z,101413.25
2022-10-31T20:32:03.215Z,101414.72
2022-10-31T20:34:31.082Z,101409.53
2022-10-31T20:36:58.973Z,101404.91
2022-10-31T20:39:26.709Z,101416.47
2022-10-31T20:41:54.554Z,101411.84
2022-10-31T20:44:23.159Z,101417.69
2022-10-31T20:46:50.838Z,101414.72
2022-10-31T20:49:18.717Z,101418.88
2022-10-31T20:51:46.744Z,101419.72
2022-10-31T20:54:16.681Z,101414.72
2022-10-31T20:56:47.310Z,101410.91
2022-10-31T20:59:17.806Z,101422.81
2022-10-31T21:01:45.697Z,101419.53
2022-10-31T21:04:13.562Z,101412.56
2022-10-31T21:06:48.193Z,101415.78
2022-10-31T21:09:19.091Z,101414.94
2022-10-31T21:11:46.799Z,101419.72
2022-10-31T21:14:16.050Z,101421.41
2022-10-31T21:16:43.910Z,101415.44
2022-10-31T21:19:13.071Z,101422.63
2022-10-31T21:21:41.191Z,101419.94
2022-10-31T21:24:15.747Z,101422.50
2022-10-31T21:26:48.453Z,101426.94
2022-10-31T21:29:17.724Z,101421.25
2022-10-31T21:31:46.062Z,101419.09
2022-10-31T21:34:14.222Z,101418.63
2022-10-31T21:36:42.059Z,101413.72
2022-10-31T21:39:10.610Z,101418.16
2022-10-31T21:41:38.423Z,101416.50
2022-10-31T21:44:06.604Z,101415.69
2022-10-31T21:46:35.552Z,101415.34
2022-10-31T21:49:06.430Z,101413.13
2022-10-31T21:51:36.121Z,101414.97
2022-10-31T21:54:22.628Z,101411.47
2022-10-31T21:56:51.197Z,101422.53
2022-10-31T21:59:18.840Z,101406.56
2022-10-31T22:01:46.620Z,101418.16
2022-10-31T22:04:14.900Z,101402.41
2022-10-31T22:06:42.631Z,101402.50
2022-10-31T22:09:12.905Z,101409.41
2022-10-31T22:11:42.380Z,101404.69
2022-10-31T22:14:14.762Z,101403.34
2022-10-31T22:16:43.134Z,101411.13
2022-10-31T22:19:13.409Z,101405.13
2022-10-31T22:21:44.709Z,101405.38
2022-10-31T22:24:13.212Z,101408.13
2022-10-31T22:26:41.260Z,101404.00
2022-10-31T22:29:15.847Z,101409.53
2022-10-31T22:31:48.428Z,101396.59
2022-10-31T22:34:19.137Z,101396.06
2022-10-31T22:36:46.896Z,101402.13
2022-10-31T22:39:15.066Z,101401.91
2022-10-31T22:41:42.762Z,101400.78
2022-10-31T22:44:10.720Z,101400.38
2022-10-31T22:46:40.079Z,101408.38
2022-10-31T22:49:11.173Z,101397.97
2022-10-31T22:51:40.877Z,101398.06
2022-10-31T22:54:13.273Z,101407.97
2022-10-31T22:56:41.099Z,101398.59
2022-10-31T22:59:13.719Z,101409.91
2022-10-31T23:01:42.034Z,101411.84
2022-10-31T23:06:43.023Z,101401.13
2022-10-31T23:09:14.348Z,101405.84
2022-10-31T23:11:42.323Z,101409.41
2022-10-31T23:14:18.669Z,101400.88
2022-10-31T23:16:53.174Z,101405.28
2022-10-31T23:19:23.746Z,101403.13
2022-10-31T23:21:57.785Z,101398.72
2022-10-31T23:24:47.849Z,101402.75
2022-10-31T23:27:21.684Z,101393.72
2022-10-31T23:29:50.819Z,101394.56
2022-10-31T23:32:27.308Z,101392.66
2022-10-31T23:34:59.983Z,101395.44
2022-10-31T23:37:30.498Z,101391.81
2022-10-31T23:39:58.373Z,101399.84
2022-10-31T23:42:27.376Z,101397.41
2022-10-31T23:44:55.496Z,101397.47
2022-10-31T23:47:23.981Z,101396.41
2022-10-31T23:49:54.397Z,101387.63
2022-10-31T23:52:22.085Z,101387.59
2022-10-31T23:54:49.878Z,101384.56
2022-10-31T23:57:17.737Z,101391.22
2022-10-31T23:59:45.420Z,101376.66
